sensor_id;sensor_type;location;lat;lon;timestamp;temperature;humidity
69589;SHT31;56792;50.644;17.984;2023-02-18T00:02:09;10.52;76.75
69589;SHT31;56792;50.644;17.984;2023-02-18T00:04:42;10.48;76.72
69589;SHT31;56792;50.644;17.984;2023-02-18T00:07:15;10.45;76.52
69589;SHT31;56792;50.644;17.984;2023-02-18T00:09:48;10.43;76.41
69589;SHT31;56792;50.644;17.984;2023-02-18T00:12:20;10.39;76.26
69589;SHT31;56792;50.644;17.984;2023-02-18T00:14:52;10.33;76.06
69589;SHT31;56792;50.644;17.984;2023-02-18T00:17:25;10.28;75.89
69589;SHT31;56792;50.644;17.984;2023-02-18T00:19:57;10.17;75.84
69589;SHT31;56792;50.644;17.984;2023-02-18T00:22:30;10.08;75.73
69589;SHT31;56792;50.644;17.984;2023-02-18T00:25:03;10.00;75.70
69589;SHT31;56792;50.644;17.984;2023-02-18T00:27:36;9.95;75.52
69589;SHT31;56792;50.644;17.984;2023-02-18T00:30:09;9.94;75.38
69589;SHT31;56792;50.644;17.984;2023-02-18T00:32:42;9.94;75.14
69589;SHT31;56792;50.644;17.984;2023-02-18T00:35:14;9.95;74.98
69589;SHT31;56792;50.644;17.984;2023-02-18T00:37:47;9.94;74.71
69589;SHT31;56792;50.644;17.984;2023-02-18T00:40:21;9.91;74.18
69589;SHT31;56792;50.644;17.984;2023-02-18T00:42:54;9.87;73.65
69589;SHT31;56792;50.644;17.984;2023-02-18T00:45:26;9.79;73.42
69589;SHT31;56792;50.644;17.984;2023-02-18T00:47:58;9.71;72.81
69589;SHT31;56792;50.644;17.984;2023-02-18T00:50:31;9.65;72.50
69589;SHT31;56792;50.644;17.984;2023-02-18T00:53:03;9.57;72.41
69589;SHT31;56792;50.644;17.984;2023-02-18T00:55:38;9.49;72.25
69589;SHT31;56792;50.644;17.984;2023-02-18T00:58:14;9.40;72.10
69589;SHT31;56792;50.644;17.984;2023-02-18T01:00:46;9.34;71.79
69589;SHT31;56792;50.644;17.984;2023-02-18T01:03:19;9.30;70.50
69589;SHT31;56792;50.644;17.984;2023-02-18T01:05:52;9.27;69.32
69589;SHT31;56792;50.644;17.984;2023-02-18T01:08:25;9.25;68.71
69589;SHT31;56792;50.644;17.984;2023-02-18T01:10:58;9.21;68.06
69589;SHT31;56792;50.644;17.984;2023-02-18T01:13:31;9.15;67.55
69589;SHT31;56792;50.644;17.984;2023-02-18T01:16:06;9.09;67.26
69589;SHT31;56792;50.644;17.984;2023-02-18T01:18:39;9.03;67.43
69589;SHT31;56792;50.644;17.984;2023-02-18T01:21:11;8.94;67.33
69589;SHT31;56792;50.644;17.984;2023-02-18T01:23:44;8.87;67.33
69589;SHT31;56792;50.644;17.984;2023-02-18T01:26:17;8.84;67.09
69589;SHT31;56792;50.644;17.984;2023-02-18T01:28:49;8.78;67.09
69589;SHT31;56792;50.644;17.984;2023-02-18T01:31:21;8.75;66.82
69589;SHT31;56792;50.644;17.984;2023-02-18T01:33:54;8.72;67.05
69589;SHT31;56792;50.644;17.984;2023-02-18T01:36:28;8.67;67.12
69589;SHT31;56792;50.644;17.984;2023-02-18T01:39:01;8.64;66.75
69589;SHT31;56792;50.644;17.984;2023-02-18T01:41:34;8.63;66.86
69589;SHT31;56792;50.644;17.984;2023-02-18T01:44:16;8.60;66.67
69589;SHT31;56792;50.644;17.984;2023-02-18T01:46:50;8.57;66.36
69589;SHT31;56792;50.644;17.984;2023-02-18T01:49:24;8.55;66.15
69589;SHT31;56792;50.644;17.984;2023-02-18T01:52:05;8.52;66.22
69589;SHT31;56792;50.644;17.984;2023-02-18T01:54:45;8.51;66.11
69589;SHT31;56792;50.644;17.984;2023-02-18T01:57:22;8.50;66.30
69589;SHT31;56792;50.644;17.984;2023-02-18T02:00:03;8.48;66.45
69589;SHT31;56792;50.644;17.984;2023-02-18T02:02:43;8.45;66.63
69589;SHT31;56792;50.644;17.984;2023-02-18T02:05:18;8.44;66.70
69589;SHT31;56792;50.644;17.984;2023-02-18T02:07:53;8.42;66.74
69589;SHT31;56792;50.644;17.984;2023-02-18T02:10:31;8.40;66.80
69589;SHT31;56792;50.644;17.984;2023-02-18T02:13:19;8.39;66.81
69589;SHT31;56792;50.644;17.984;2023-02-18T02:16:02;8.36;66.81
69589;SHT31;56792;50.644;17.984;2023-02-18T02:18:48;8.34;66.51
69589;SHT31;56792;50.644;17.984;2023-02-18T02:24:51;8.31;65.34
69589;SHT31;56792;50.644;17.984;2023-02-18T02:27:39;8.30;64.18
69589;SHT31;56792;50.644;17.984;2023-02-18T02:31:16;8.29;61.92
69589;SHT31;56792;50.644;17.984;2023-02-18T02:34:29;8.24;61.86
69589;SHT31;56792;50.644;17.984;2023-02-18T02:37:17;8.22;60.90
69589;SHT31;56792;50.644;17.984;2023-02-18T02:40:03;8.23;60.46
69589;SHT31;56792;50.644;17.984;2023-02-18T02:42:53;8.20;60.32
69589;SHT31;56792;50.644;17.984;2023-02-18T02:45:41;8.18;60.19
69589;SHT31;56792;50.644;17.984;2023-02-18T02:48:26;8.14;60.37
69589;SHT31;56792;50.644;17.984;2023-02-18T02:51:14;8.10;60.57
69589;SHT31;56792;50.644;17.984;2023-02-18T02:53:56;8.04;60.66
69589;SHT31;56792;50.644;17.984;2023-02-18T02:56:41;8.00;60.63
69589;SHT31;56792;50.644;17.984;2023-02-18T02:59:15;7.96;60.74
69589;SHT31;56792;50.644;17.984;2023-02-18T03:01:56;7.91;61.04
69589;SHT31;56792;50.644;17.984;2023-02-18T03:05:04;7.86;61.21
69589;SHT31;56792;50.644;17.984;2023-02-18T03:08:10;7.80;61.46
69589;SHT31;56792;50.644;17.984;2023-02-18T03:11:05;7.76;61.50
69589;SHT31;56792;50.644;17.984;2023-02-18T03:13:44;7.76;61.12
69589;SHT31;56792;50.644;17.984;2023-02-18T03:16:35;7.74;61.35
69589;SHT31;56792;50.644;17.984;2023-02-18T03:19:17;7.73;61.28
69589;SHT31;56792;50.644;17.984;2023-02-18T03:21:59;7.71;61.42
69589;SHT31;56792;50.644;17.984;2023-02-18T03:24:38;7.68;61.46
69589;SHT31;56792;50.644;17.984;2023-02-18T03:27:20;7.66;61.36
69589;SHT31;56792;50.644;17.984;2023-02-18T03:29:58;7.64;61.41
69589;SHT31;56792;50.644;17.984;2023-02-18T03:32:39;7.61;61.48
69589;SHT31;56792;50.644;17.984;2023-02-18T03:35:15;7.57;61.58
69589;SHT31;56792;50.644;17.984;2023-02-18T03:37:49;7.52;61.69
69589;SHT31;56792;50.644;17.984;2023-02-18T03:40:30;7.49;61.56
69589;SHT31;56792;50.644;17.984;2023-02-18T03:43:02;7.47;60.42
69589;SHT31;56792;50.644;17.984;2023-02-18T03:45:35;7.46;58.83
69589;SHT31;56792;50.644;17.984;2023-02-18T03:48:08;7.51;58.14
69589;SHT31;56792;50.644;17.984;2023-02-18T03:50:40;7.49;58.36
69589;SHT31;56792;50.644;17.984;2023-02-18T03:53:12;7.44;58.43
69589;SHT31;56792;50.644;17.984;2023-02-18T03:55:45;7.44;57.77
69589;SHT31;56792;50.644;17.984;2023-02-18T03:58:17;7.43;57.99
69589;SHT31;56792;50.644;17.984;2023-02-18T04:00:49;7.39;57.81
69589;SHT31;56792;50.644;17.984;2023-02-18T04:03:21;7.37;57.91
69589;SHT31;56792;50.644;17.984;2023-02-18T04:05:54;7.34;57.38
69589;SHT31;56792;50.644;17.984;2023-02-18T04:08:26;7.33;57.25
69589;SHT31;56792;50.644;17.984;2023-02-18T04:10:58;7.30;57.21
69589;SHT31;56792;50.644;17.984;2023-02-18T04:13:32;7.28;56.47
69589;SHT31;56792;50.644;17.984;2023-02-18T04:16:06;7.27;56.81
69589;SHT31;56792;50.644;17.984;2023-02-18T04:18:38;7.26;56.45
69589;SHT31;56792;50.644;17.984;2023-02-18T04:21:10;7.23;56.75
69589;SHT31;56792;50.644;17.984;2023-02-18T04:23:42;7.21;56.26
69589;SHT31;56792;50.644;17.984;2023-02-18T04:26:15;7.21;55.78
69589;SHT31;56792;50.644;17.984;2023-02-18T04:28:47;7.21;55.70
69589;SHT31;56792;50.644;17.984;2023-02-18T04:31:19;7.20;55.80
69589;SHT31;56792;50.644;17.984;2023-02-18T04:33:52;7.19;55.45
69589;SHT31;56792;50.644;17.984;2023-02-18T04:36:24;7.19;55.37
69589;SHT31;56792;50.644;17.984;2023-02-18T04:38:57;7.18;55.57
69589;SHT31;56792;50.644;17.984;2023-02-18T04:41:29;7.13;55.69
69589;SHT31;56792;50.644;17.984;2023-02-18T04:44:01;7.12;55.52
69589;SHT31;56792;50.644;17.984;2023-02-18T04:46:34;7.09;55.44
69589;SHT31;56792;50.644;17.984;2023-02-18T04:49:06;7.05;55.46
69589;SHT31;56792;50.644;17.984;2023-02-18T04:51:39;7.04;55.52
69589;SHT31;56792;50.644;17.984;2023-02-18T04:54:11;7.04;55.27
69589;SHT31;56792;50.644;17.984;2023-02-18T04:56:43;7.03;55.31
69589;SHT31;56792;50.644;17.984;2023-02-18T04:59:15;7.04;54.77
69589;SHT31;56792;50.644;17.984;2023-02-18T05:01:48;7.04;54.76
69589;SHT31;56792;50.644;17.984;2023-02-18T05:04:20;7.04;54.75
69589;SHT31;56792;50.644;17.984;2023-02-18T05:06:53;7.04;54.72
69589;SHT31;56792;50.644;17.984;2023-02-18T05:09:27;7.02;54.14
69589;SHT31;56792;50.644;17.984;2023-02-18T05:11:59;7.03;53.81
69589;SHT31;56792;50.644;17.984;2023-02-18T05:14:32;7.03;54.08
69589;SHT31;56792;50.644;17.984;2023-02-18T05:17:04;7.00;54.02
69589;SHT31;56792;50.644;17.984;2023-02-18T05:19:38;7.00;53.54
69589;SHT31;56792;50.644;17.984;2023-02-18T05:22:10;7.01;53.57
69589;SHT31;56792;50.644;17.984;2023-02-18T05:24:42;7.02;53.71
69589;SHT31;56792;50.644;17.984;2023-02-18T05:27:15;7.07;53.05
69589;SHT31;56792;50.644;17.984;2023-02-18T05:29:47;7.15;52.75
69589;SHT31;56792;50.644;17.984;2023-02-18T05:32:19;7.21;52.87
69589;SHT31;56792;50.644;17.984;2023-02-18T05:34:52;7.26;52.89
69589;SHT31;56792;50.644;17.984;2023-02-18T05:37:26;7.29;52.75
69589;SHT31;56792;50.644;17.984;2023-02-18T05:39:58;7.33;52.40
69589;SHT31;56792;50.644;17.984;2023-02-18T05:42:30;7.37;52.58
69589;SHT31;56792;50.644;17.984;2023-02-18T05:45:03;7.41;51.86
69589;SHT31;56792;50.644;17.984;2023-02-18T05:47:38;7.45;51.63
69589;SHT31;56792;50.644;17.984;2023-02-18T05:50:10;7.49;51.93
69589;SHT31;56792;50.644;17.984;2023-02-18T05:52:42;7.53;51.49
69589;SHT31;56792;50.644;17.984;2023-02-18T05:55:15;7.55;51.37
69589;SHT31;56792;50.644;17.984;2023-02-18T05:57:47;7.59;51.27
69589;SHT31;56792;50.644;17.984;2023-02-18T06:00:20;7.64;50.82
69589;SHT31;56792;50.644;17.984;2023-02-18T06:02:52;7.66;50.74
69589;SHT31;56792;50.644;17.984;2023-02-18T06:05:25;7.72;50.31
69589;SHT31;56792;50.644;17.984;2023-02-18T06:07:57;7.73;50.64
69589;SHT31;56792;50.644;17.984;2023-02-18T06:10:30;7.74;50.60
69589;SHT31;56792;50.644;17.984;2023-02-18T06:13:02;7.74;50.77
69589;SHT31;56792;50.644;17.984;2023-02-18T06:15:34;7.73;50.77
69589;SHT31;56792;50.644;17.984;2023-02-18T06:18:07;7.75;50.25
69589;SHT31;56792;50.644;17.984;2023-02-18T06:20:39;7.79;50.19
69589;SHT31;56792;50.644;17.984;2023-02-18T06:23:11;7.84;50.38
69589;SHT31;56792;50.644;17.984;2023-02-18T06:25:46;7.88;50.10
69589;SHT31;56792;50.644;17.984;2023-02-18T06:28:19;7.91;50.29
69589;SHT31;56792;50.644;17.984;2023-02-18T06:30:51;7.94;50.55
69589;SHT31;56792;50.644;17.984;2023-02-18T06:33:24;7.97;50.15
69589;SHT31;56792;50.644;17.984;2023-02-18T06:35:57;8.00;50.40
69589;SHT31;56792;50.644;17.984;2023-02-18T06:38:38;8.02;50.42
69589;SHT31;56792;50.644;17.984;2023-02-18T06:41:16;8.05;50.34
69589;SHT31;56792;50.644;17.984;2023-02-18T06:43:48;8.09;50.14
69589;SHT31;56792;50.644;17.984;2023-02-18T06:46:20;8.11;49.75
69589;SHT31;56792;50.644;17.984;2023-02-18T06:48:53;8.15;49.80
69589;SHT31;56792;50.644;17.984;2023-02-18T06:51:25;8.20;49.88
69589;SHT31;56792;50.644;17.984;2023-02-18T06:53:57;8.21;50.03
69589;SHT31;56792;50.644;17.984;2023-02-18T06:56:30;8.23;49.92
69589;SHT31;56792;50.644;17.984;2023-02-18T06:59:02;8.27;49.65
69589;SHT31;56792;50.644;17.984;2023-02-18T07:01:35;8.31;49.71
69589;SHT31;56792;50.644;17.984;2023-02-18T07:04:08;8.33;49.96
69589;SHT31;56792;50.644;17.984;2023-02-18T07:06:41;8.35;49.99
69589;SHT31;56792;50.644;17.984;2023-02-18T07:09:17;8.36;49.74
69589;SHT31;56792;50.644;17.984;2023-02-18T07:11:50;8.36;49.99
69589;SHT31;56792;50.644;17.984;2023-02-18T07:14:22;8.36;50.24
69589;SHT31;56792;50.644;17.984;2023-02-18T07:16:55;8.38;50.11
69589;SHT31;56792;50.644;17.984;2023-02-18T07:19:28;8.38;49.98
69589;SHT31;56792;50.644;17.984;2023-02-18T07:22:00;8.40;49.89
69589;SHT31;56792;50.644;17.984;2023-02-18T07:24:33;8.40;49.71
69589;SHT31;56792;50.644;17.984;2023-02-18T07:27:05;8.42;49.85
69589;SHT31;56792;50.644;17.984;2023-02-18T07:29:38;8.45;49.58
69589;SHT31;56792;50.644;17.984;2023-02-18T07:32:10;8.49;49.70
69589;SHT31;56792;50.644;17.984;2023-02-18T07:34:45;8.53;49.73
69589;SHT31;56792;50.644;17.984;2023-02-18T07:37:21;8.56;49.91
69589;SHT31;56792;50.644;17.984;2023-02-18T07:39:54;8.61;50.03
69589;SHT31;56792;50.644;17.984;2023-02-18T07:42:27;8.65;50.14
69589;SHT31;56792;50.644;17.984;2023-02-18T07:45:00;8.67;49.92
69589;SHT31;56792;50.644;17.984;2023-02-18T07:47:34;8.71;49.90
69589;SHT31;56792;50.644;17.984;2023-02-18T07:50:09;8.73;50.19
69589;SHT31;56792;50.644;17.984;2023-02-18T07:52:42;8.72;49.77
69589;SHT31;56792;50.644;17.984;2023-02-18T07:55:15;8.74;50.02
69589;SHT31;56792;50.644;17.984;2023-02-18T07:57:47;8.75;50.37
69589;SHT31;56792;50.644;17.984;2023-02-18T08:00:28;8.79;50.55
69589;SHT31;56792;50.644;17.984;2023-02-18T08:03:00;8.82;50.23
69589;SHT31;56792;50.644;17.984;2023-02-18T08:05:32;8.84;50.50
69589;SHT31;56792;50.644;17.984;2023-02-18T08:08:05;8.87;50.60
69589;SHT31;56792;50.644;17.984;2023-02-18T08:10:40;8.90;50.67
69589;SHT31;56792;50.644;17.984;2023-02-18T08:13:13;8.94;50.93
69589;SHT31;56792;50.644;17.984;2023-02-18T08:15:45;8.97;50.87
69589;SHT31;56792;50.644;17.984;2023-02-18T08:18:19;9.00;51.32
69589;SHT31;56792;50.644;17.984;2023-02-18T08:20:53;9.06;51.32
69589;SHT31;56792;50.644;17.984;2023-02-18T08:23:25;9.13;51.38
69589;SHT31;56792;50.644;17.984;2023-02-18T08:25:57;9.22;51.37
69589;SHT31;56792;50.644;17.984;2023-02-18T08:28:30;9.41;51.10
69589;SHT31;56792;50.644;17.984;2023-02-18T08:31:02;9.57;50.89
69589;SHT31;56792;50.644;17.984;2023-02-18T08:33:43;9.70;51.14
69589;SHT31;56792;50.644;17.984;2023-02-18T08:36:16;9.69;50.79
69589;SHT31;56792;50.644;17.984;2023-02-18T08:38:49;9.72;51.11
69589;SHT31;56792;50.644;17.984;2023-02-18T08:41:23;9.72;51.16
69589;SHT31;56792;50.644;17.984;2023-02-18T08:43:56;9.68;51.29
69589;SHT31;56792;50.644;17.984;2023-02-18T08:46:28;9.69;51.35
69589;SHT31;56792;50.644;17.984;2023-02-18T08:49:00;9.68;51.15
69589;SHT31;56792;50.644;17.984;2023-02-18T08:51:33;9.67;51.23
69589;SHT31;56792;50.644;17.984;2023-02-18T08:54:06;9.68;50.77
69589;SHT31;56792;50.644;17.984;2023-02-18T08:56:39;9.72;50.94
69589;SHT31;56792;50.644;17.984;2023-02-18T08:59:12;9.84;51.07
69589;SHT31;56792;50.644;17.984;2023-02-18T09:01:45;9.94;50.77
69589;SHT31;56792;50.644;17.984;2023-02-18T09:04:18;10.00;50.80
69589;SHT31;56792;50.644;17.984;2023-02-18T09:06:50;10.07;51.06
69589;SHT31;56792;50.644;17.984;2023-02-18T09:09:24;10.10;51.17
69589;SHT31;56792;50.644;17.984;2023-02-18T09:11:57;10.11;50.77
69589;SHT31;56792;50.644;17.984;2023-02-18T09:14:30;10.10;50.95
69589;SHT31;56792;50.644;17.984;2023-02-18T09:17:04;10.20;50.91
69589;SHT31;56792;50.644;17.984;2023-02-18T09:19:37;10.35;50.68
69589;SHT31;56792;50.644;17.984;2023-02-18T09:22:09;10.45;50.54
69589;SHT31;56792;50.644;17.984;2023-02-18T09:24:44;10.50;50.36
69589;SHT31;56792;50.644;17.984;2023-02-18T09:27:17;10.51;50.53
69589;SHT31;56792;50.644;17.984;2023-02-18T09:29:50;10.50;49.99
69589;SHT31;56792;50.644;17.984;2023-02-18T09:32:24;10.41;49.76
69589;SHT31;56792;50.644;17.984;2023-02-18T09:34:57;10.21;48.83
69589;SHT31;56792;50.644;17.984;2023-02-18T09:37:29;10.01;49.64
69589;SHT31;56792;50.644;17.984;2023-02-18T09:40:04;9.87;50.18
69589;SHT31;56792;50.644;17.984;2023-02-18T09:42:48;9.81;50.67
69589;SHT31;56792;50.644;17.984;2023-02-18T09:45:22;9.77;50.99
69589;SHT31;56792;50.644;17.984;2023-02-18T09:47:55;9.73;51.40
69589;SHT31;56792;50.644;17.984;2023-02-18T09:50:31;9.69;51.56
69589;SHT31;56792;50.644;17.984;2023-02-18T09:53:05;9.66;51.86
69589;SHT31;56792;50.644;17.984;2023-02-18T09:55:41;9.62;52.15
69589;SHT31;56792;50.644;17.984;2023-02-18T09:58:16;9.60;52.48
69589;SHT31;56792;50.644;17.984;2023-02-18T10:00:55;9.58;52.69
69589;SHT31;56792;50.644;17.984;2023-02-18T10:03:42;9.61;52.49
69589;SHT31;56792;50.644;17.984;2023-02-18T10:06:16;9.57;52.34
69589;SHT31;56792;50.644;17.984;2023-02-18T10:08:53;9.53;52.73
69589;SHT31;56792;50.644;17.984;2023-02-18T10:11:33;9.55;53.23
69589;SHT31;56792;50.644;17.984;2023-02-18T10:14:14;9.53;53.15
69589;SHT31;56792;50.644;17.984;2023-02-18T10:16:48;9.52;53.36
69589;SHT31;56792;50.644;17.984;2023-02-18T10:19:23;9.54;53.40
69589;SHT31;56792;50.644;17.984;2023-02-18T10:22:01;9.57;53.56
69589;SHT31;56792;50.644;17.984;2023-02-18T10:24:39;9.64;53.83
69589;SHT31;56792;50.644;17.984;2023-02-18T10:27:16;9.75;53.79
69589;SHT31;56792;50.644;17.984;2023-02-18T10:29:58;9.88;53.77
69589;SHT31;56792;50.644;17.984;2023-02-18T10:32:50;9.97;53.39
69589;SHT31;56792;50.644;17.984;2023-02-18T10:35:29;9.94;53.62
69589;SHT31;56792;50.644;17.984;2023-02-18T10:38:12;9.94;54.04
69589;SHT31;56792;50.644;17.984;2023-02-18T10:40:57;9.95;54.42
69589;SHT31;56792;50.644;17.984;2023-02-18T10:43:45;9.95;54.71
69589;SHT31;56792;50.644;17.984;2023-02-18T10:46:32;9.96;54.67
69589;SHT31;56792;50.644;17.984;2023-02-18T10:49:21;9.96;54.79
69589;SHT31;56792;50.644;17.984;2023-02-18T10:52:17;9.97;54.91
69589;SHT31;56792;50.644;17.984;2023-02-18T10:54:52;9.96;55.01
69589;SHT31;56792;50.644;17.984;2023-02-18T10:57:30;9.92;55.67
69589;SHT31;56792;50.644;17.984;2023-02-18T11:00:15;9.90;56.15
69589;SHT31;56792;50.644;17.984;2023-02-18T11:03:02;9.81;56.78
69589;SHT31;56792;50.644;17.984;2023-02-18T11:05:44;9.71;57.84
69589;SHT31;56792;50.644;17.984;2023-02-18T11:08:21;9.66;58.60
69589;SHT31;56792;50.644;17.984;2023-02-18T11:10:59;9.63;59.15
69589;SHT31;56792;50.644;17.984;2023-02-18T11:13:45;9.60;59.77
69589;SHT31;56792;50.644;17.984;2023-02-18T11:16:36;9.57;60.16
69589;SHT31;56792;50.644;17.984;2023-02-18T11:22:11;9.50;61.12
69589;SHT31;56792;50.644;17.984;2023-02-18T11:24:49;9.45;61.52
69589;SHT31;56792;50.644;17.984;2023-02-18T11:27:29;9.38;61.89
69589;SHT31;56792;50.644;17.984;2023-02-18T11:30:18;9.28;62.16
69589;SHT31;56792;50.644;17.984;2023-02-18T11:32:54;9.21;62.31
69589;SHT31;56792;50.644;17.984;2023-02-18T11:35:31;9.18;62.76
69589;SHT31;56792;50.644;17.984;2023-02-18T11:41:00;9.19;63.37
69589;SHT31;56792;50.644;17.984;2023-02-18T11:43:39;9.19;63.49
69589;SHT31;56792;50.644;17.984;2023-02-18T11:46:16;9.18;63.73
69589;SHT31;56792;50.644;17.984;2023-02-18T11:48:51;9.17;64.08
69589;SHT31;56792;50.644;17.984;2023-02-18T11:51:25;9.16;64.47
69589;SHT31;56792;50.644;17.984;2023-02-18T11:54:20;9.17;64.86
69589;SHT31;56792;50.644;17.984;2023-02-18T11:56:58;9.16;65.08
69589;SHT31;56792;50.644;17.984;2023-02-18T11:59:34;9.13;65.46
69589;SHT31;56792;50.644;17.984;2023-02-18T12:02:21;9.09;65.65
69589;SHT31;56792;50.644;17.984;2023-02-18T12:05:04;9.11;66.18
69589;SHT31;56792;50.644;17.984;2023-02-18T12:07:45;9.07;66.49
69589;SHT31;56792;50.644;17.984;2023-02-18T12:10:26;9.05;66.67
69589;SHT31;56792;50.644;17.984;2023-02-18T12:13:04;9.01;66.62
69589;SHT31;56792;50.644;17.984;2023-02-18T12:15:53;8.94;66.94
69589;SHT31;56792;50.644;17.984;2023-02-18T12:21:51;8.87;67.68
69589;SHT31;56792;50.644;17.984;2023-02-18T12:24:34;8.88;67.99
69589;SHT31;56792;50.644;17.984;2023-02-18T12:27:30;8.85;67.99
69589;SHT31;56792;50.644;17.984;2023-02-18T12:30:24;8.81;68.16
69589;SHT31;56792;50.644;17.984;2023-02-18T12:33:29;8.80;68.80
69589;SHT31;56792;50.644;17.984;2023-02-18T12:36:23;8.78;69.20
69589;SHT31;56792;50.644;17.984;2023-02-18T12:39:18;8.77;69.23
69589;SHT31;56792;50.644;17.984;2023-02-18T12:42:12;8.76;69.11
69589;SHT31;56792;50.644;17.984;2023-02-18T12:45:16;8.72;69.46
69589;SHT31;56792;50.644;17.984;2023-02-18T12:48:24;8.66;70.23
69589;SHT31;56792;50.644;17.984;2023-02-18T12:51:18;8.65;70.67
69589;SHT31;56792;50.644;17.984;2023-02-18T12:54:20;8.61;70.57
69589;SHT31;56792;50.644;17.984;2023-02-18T12:57:28;8.56;70.83
69589;SHT31;56792;50.644;17.984;2023-02-18T13:03:34;8.43;71.58
69589;SHT31;56792;50.644;17.984;2023-02-18T13:06:41;8.38;71.82
69589;SHT31;56792;50.644;17.984;2023-02-18T13:09:48;8.35;72.20
69589;SHT31;56792;50.644;17.984;2023-02-18T13:12:44;8.31;72.53
69589;SHT31;56792;50.644;17.984;2023-02-18T13:15:27;8.23;72.75
69589;SHT31;56792;50.644;17.984;2023-02-18T13:18:09;8.20;72.98
69589;SHT31;56792;50.644;17.984;2023-02-18T13:20:50;8.13;73.38
69589;SHT31;56792;50.644;17.984;2023-02-18T13:23:27;8.10;73.59
69589;SHT31;56792;50.644;17.984;2023-02-18T13:26:08;8.08;73.74
69589;SHT31;56792;50.644;17.984;2023-02-18T13:28:45;8.06;73.94
69589;SHT31;56792;50.644;17.984;2023-02-18T13:31:43;8.04;74.13
69589;SHT31;56792;50.644;17.984;2023-02-18T13:34:30;8.04;74.42
69589;SHT31;56792;50.644;17.984;2023-02-18T13:37:14;8.02;74.72
69589;SHT31;56792;50.644;17.984;2023-02-18T13:39:56;7.99;75.01
69589;SHT31;56792;50.644;17.984;2023-02-18T13:42:35;7.98;75.08
69589;SHT31;56792;50.644;17.984;2023-02-18T13:45:33;7.98;75.21
69589;SHT31;56792;50.644;17.984;2023-02-18T13:48:09;7.99;75.35
69589;SHT31;56792;50.644;17.984;2023-02-18T13:51:00;7.99;75.48
69589;SHT31;56792;50.644;17.984;2023-02-18T13:53:37;7.98;75.71
69589;SHT31;56792;50.644;17.984;2023-02-18T13:56:29;7.97;75.86
69589;SHT31;56792;50.644;17.984;2023-02-18T13:59:08;7.96;75.93
69589;SHT31;56792;50.644;17.984;2023-02-18T14:01:51;7.97;76.12
69589;SHT31;56792;50.644;17.984;2023-02-18T14:04:51;7.96;76.19
69589;SHT31;56792;50.644;17.984;2023-02-18T14:07:36;7.94;76.17
69589;SHT31;56792;50.644;17.984;2023-02-18T14:10:27;7.93;76.39
69589;SHT31;56792;50.644;17.984;2023-02-18T14:13:22;7.97;76.32
69589;SHT31;56792;50.644;17.984;2023-02-18T14:16:09;7.98;76.32
69589;SHT31;56792;50.644;17.984;2023-02-18T14:19:00;7.93;76.50
69589;SHT31;56792;50.644;17.984;2023-02-18T14:21:59;7.91;76.56
69589;SHT31;56792;50.644;17.984;2023-02-18T14:25:02;7.94;76.70
69589;SHT31;56792;50.644;17.984;2023-02-18T14:27:52;7.84;76.99
69589;SHT31;56792;50.644;17.984;2023-02-18T14:30:30;7.81;77.15
69589;SHT31;56792;50.644;17.984;2023-02-18T14:33:14;7.81;77.27
69589;SHT31;56792;50.644;17.984;2023-02-18T14:35:52;7.84;77.37
69589;SHT31;56792;50.644;17.984;2023-02-18T14:38:40;7.86;77.35
69589;SHT31;56792;50.644;17.984;2023-02-18T14:44:21;7.85;77.41
69589;SHT31;56792;50.644;17.984;2023-02-18T14:47:19;7.83;77.58
69589;SHT31;56792;50.644;17.984;2023-02-18T14:50:09;7.84;77.79
69589;SHT31;56792;50.644;17.984;2023-02-18T14:52:47;7.80;77.98
69589;SHT31;56792;50.644;17.984;2023-02-18T14:58:35;7.77;78.29
69589;SHT31;56792;50.644;17.984;2023-02-18T15:01:17;7.76;78.41
69589;SHT31;56792;50.644;17.984;2023-02-18T15:03:55;7.78;78.61
69589;SHT31;56792;50.644;17.984;2023-02-18T15:06:32;7.73;78.75
69589;SHT31;56792;50.644;17.984;2023-02-18T15:09:14;7.73;78.93
69589;SHT31;56792;50.644;17.984;2023-02-18T15:11:54;7.73;79.13
69589;SHT31;56792;50.644;17.984;2023-02-18T15:14:34;7.71;79.17
69589;SHT31;56792;50.644;17.984;2023-02-18T15:17:12;7.68;79.37
69589;SHT31;56792;50.644;17.984;2023-02-18T15:19:54;7.67;79.49
69589;SHT31;56792;50.644;17.984;2023-02-18T15:22:33;7.70;79.68
69589;SHT31;56792;50.644;17.984;2023-02-18T15:25:12;7.67;79.87
69589;SHT31;56792;50.644;17.984;2023-02-18T15:27:51;7.67;79.98
69589;SHT31;56792;50.644;17.984;2023-02-18T15:30:26;7.63;80.34
69589;SHT31;56792;50.644;17.984;2023-02-18T15:33:09;7.61;80.47
69589;SHT31;56792;50.644;17.984;2023-02-18T15:35:45;7.62;80.62
69589;SHT31;56792;50.644;17.984;2023-02-18T15:38:19;7.65;80.69
69589;SHT31;56792;50.644;17.984;2023-02-18T15:40:56;7.65;80.83
69589;SHT31;56792;50.644;17.984;2023-02-18T15:43:35;7.66;80.88
69589;SHT31;56792;50.644;17.984;2023-02-18T15:46:19;7.69;80.97
69589;SHT31;56792;50.644;17.984;2023-02-18T15:48:57;7.72;81.12
69589;SHT31;56792;50.644;17.984;2023-02-18T15:51:36;7.77;81.20
69589;SHT31;56792;50.644;17.984;2023-02-18T15:54:13;7.81;81.27
69589;SHT31;56792;50.644;17.984;2023-02-18T15:56:54;7.85;81.39
69589;SHT31;56792;50.644;17.984;2023-02-18T15:59:42;7.90;81.43
69589;SHT31;56792;50.644;17.984;2023-02-18T16:02:23;7.94;81.49
69589;SHT31;56792;50.644;17.984;2023-02-18T16:04:59;7.98;81.59
69589;SHT31;56792;50.644;17.984;2023-02-18T16:07:50;8.01;81.86
69589;SHT31;56792;50.644;17.984;2023-02-18T16:10:43;8.07;82.22
69589;SHT31;56792;50.644;17.984;2023-02-18T16:13:24;8.17;82.68
69589;SHT31;56792;50.644;17.984;2023-02-18T16:16:00;8.29;82.86
69589;SHT31;56792;50.644;17.984;2023-02-18T16:18:36;8.43;82.93
69589;SHT31;56792;50.644;17.984;2023-02-18T16:21:28;8.55;83.01
69589;SHT31;56792;50.644;17.984;2023-02-18T16:24:22;8.71;83.04
69589;SHT31;56792;50.644;17.984;2023-02-18T16:27:03;8.87;83.26
69589;SHT31;56792;50.644;17.984;2023-02-18T16:29:49;9.05;83.47
69589;SHT31;56792;50.644;17.984;2023-02-18T16:32:30;9.20;83.34
69589;SHT31;56792;50.644;17.984;2023-02-18T16:35:04;9.29;83.41
69589;SHT31;56792;50.644;17.984;2023-02-18T16:37:42;9.38;83.38
69589;SHT31;56792;50.644;17.984;2023-02-18T16:40:22;9.48;83.41
69589;SHT31;56792;50.644;17.984;2023-02-18T16:43:08;9.57;83.31
69589;SHT31;56792;50.644;17.984;2023-02-18T16:45:44;9.66;83.20
69589;SHT31;56792;50.644;17.984;2023-02-18T16:48:20;9.73;83.06
69589;SHT31;56792;50.644;17.984;2023-02-18T16:51:00;9.76;82.86
69589;SHT31;56792;50.644;17.984;2023-02-18T16:53:38;9.80;82.72
69589;SHT31;56792;50.644;17.984;2023-02-18T16:56:15;9.85;82.58
69589;SHT31;56792;50.644;17.984;2023-02-18T16:58:53;9.91;82.34
69589;SHT31;56792;50.644;17.984;2023-02-18T17:01:27;9.96;82.14
69589;SHT31;56792;50.644;17.984;2023-02-18T17:04:08;10.01;81.94